This is the latest recevied weather packets stored in our database for station/object KTPF. If no packets are shown the sender has not sent any weather packets the latest 10 day(s).
| Time | Temp. | Humidity | Pressure | Rain* | Wind** | Luminosity | Snow |
|---|---|---|---|---|---|---|---|
| 1777224222 | 27.78° C | 61% | 1012.2 hPa | - | - | - | - |
| 1777223619 | 28.89° C | 58% | 1012.2 hPa | - | - | - | - |
| 1777223021 | 28.89° C | 58% | 1012.2 hPa | - | - | - | - |
| 1777222423 | 28.89° C | 62% | 1012.5 hPa | - | - | - | - |
| 1777221821 | 28.89° C | 62% | 1012.5 hPa | - | - | - | - |
| 1777221222 | 27.78° C | 65% | 1012.2 hPa | - | - | - | - |
| 1777220617 | 27.78° C | 65% | 1012.2 hPa | - | - | - | - |
| 1777220021 | 27.78° C | 69% | 1012.5 hPa | - | - | - | - |
| 1777219420 | 27.78° C | 69% | 1012.5 hPa | - | - | - | - |
| 1777218822 | 27.78° C | 69% | 1012.5 hPa | - | - | - | - |
| 1777218217 | 27.78° C | 69% | 1012.5 hPa | - | - | - | - |
| 1777217618 | 26.67° C | 69% | 1012.5 hPa | - | - | - | - |
| 1777217023 | 26.67° C | 69% | 1012.5 hPa | - | - | - | - |
| 1777216418 | 26.67° C | 74% | 1012.5 hPa | - | - | - | - |
| 1777215820 | 26.67° C | 74% | 1012.5 hPa | - | - | - | - |
| 1777215218 | 26.67° C | 74% | 1012.5 hPa | - | - | - | - |
| 1777214618 | 26.67° C | 74% | 1012.5 hPa | - | - | - | - |
| 1777214017 | 25° C | 83% | 1012.5 hPa | - | - | - | - |
| 1777213421 | 25° C | 83% | 1012.5 hPa | - | - | - | - |
| 1777212819 | 25° C | 83% | 1012.9 hPa | - | - | - | - |
| 1777212220 | 25° C | 83% | 1012.9 hPa | - | - | - | - |
| 1777211620 | 25.56° C | 83% | 1012.5 hPa | - | - | - | - |
| 1777211017 | 25.56° C | 83% | 1012.5 hPa | - | - | - | - |
| 1777210417 | 25° C | 83% | 1012.5 hPa | - | - | - | - |
| 1777209818 | 25° C | 83% | 1012.5 hPa | - | - | - | - |
* Rain since midnight (hover to see other rain measurements)
** Current wind speed in m/s (hover to see current wind gust speed)